Latest Weather Observations for Bankstown

IDN60901

Issued at 1:11 pm EST Saturday 30 April 2016 (issued every 10 minutes, with the page automatically refreshed every 10 minutes)

About weather observations | Map of Sydney area stations | Latest observations for Sydney area | Other Formats
Station Details ID: 066137 Name: BANKSTOWN AIRPORT AWS Lat: -33.92 Lon: 150.99 Height: 6.5 m
Data from the previous 72 hours. | See also: Recent months at Bankstown
Date/Time
EST
Tmp

°C
App
Tmp
°C
Dew
Point
°C
Rel
Hum
%
Delta-T

°C
Wind Press
QNH
hPa
Press
MSL
hPa
Rain
since
9 am
mm
Dir
 
Spd
km/h
Gust
km/h
Spd
kts
Gust
kts
30/01:00pm 24.5 24.2 16.5 61 4.9 NW 13 19 7 10 1015.9 1015.9 0.0
30/12:30pm 25.0 24.7 16.4 59 5.3 NNW 13 19 7 10 1016.3 1016.3 0.0
30/12:00pm 23.9 22.3 15.9 61 4.8 NNW 19 24 10 13 1016.9 1016.9 0.0
30/11:30am 24.3 23.5 16.0 60 5.0 N 15 24 8 13 1017.1 1017.1 0.0
30/11:00am 22.3 24.5 17.4 74 3.0 NNW 2 7 1 4 1017.5 1017.5 0.0
30/10:30am 21.1 23.5 16.9 77 2.6 CALM 0 0 0 0 1018.3 1018.3 0.0
30/10:00am 19.9 21.4 16.7 82 1.9 W 4 7 2 4 1018.5 1018.5 0.0
30/09:30am 19.6 20.4 17.2 86 1.5 W 9 11 5 6 1018.8 1018.8 0.0
30/09:00am 19.4 21.4 17.0 86 1.5 WNW 2 7 1 4 1018.6 1018.6 0.0
30/08:30am 18.9 20.0 17.0 89 1.1 NNW 7 9 4 5 1018.7 1018.7 0.0
30/08:00am 18.5 19.2 17.0 91 0.9 NNW 9 11 5 6 1018.9 1018.9 0.0
30/07:30am 18.0 19.1 16.5 91 0.9 NNW 6 7 3 4 1018.9 1018.9 0.0
30/07:00am 17.6 19.8 16.5 93 0.7 CALM 0 0 0 0 1018.6 1018.6 0.0
30/06:30am 17.5 19.6 16.2 92 0.8 CALM 0 0 0 0 1018.5 1018.5 0.0
30/06:00am 17.7 19.8 16.2 91 0.9 CALM 0 0 0 0 1018.4 1018.4 0.0
30/05:30am 17.5 19.4 15.8 90 1.0 CALM 0 0 0 0 1018.1 1018.1 0.0
30/05:00am 17.6 19.7 16.3 92 0.8 CALM 0 0 0 0 1018.4 1018.4 0.0
30/04:30am 17.5 19.1 16.0 91 0.9 NW 2 6 1 3 1018.1 1018.1 0.0
30/04:00am 17.5 18.7 16.0 91 0.9 NW 4 6 2 3 1017.9 1017.9 0.0
30/03:30am 17.7 18.9 16.0 90 1.0 NNW 4 7 2 4 1017.5 1017.5 0.0
30/03:00am 17.6 18.4 15.9 90 1.0 N 6 9 3 5 1017.5 1017.5 0.0
30/02:30am 17.6 19.6 15.9 90 1.0 CALM 0 4 0 2 1017.5 1017.5 0.0
30/02:00am 17.2 19.0 15.5 90 1.0 CALM 0 6 0 3 1017.9 1017.9 0.0
30/01:30am 17.7 19.8 16.2 91 0.9 CALM 0 0 0 0 1018.1 1018.1 0.0
30/01:00am 17.1 18.3 15.8 92 0.8 E 4 9 2 5 1018.4 1018.4 0.0
30/12:30am 17.6 19.7 16.3 92 0.8 CALM 0 0 0 0 1018.1 1018.1 0.0
30/12:00am 17.6 19.7 16.3 92 0.8 CALM 0 0 0 0 1018.3 1018.3 0.0
 
Date/Time
EST
Tmp

°C
App
Tmp
°C
Dew
Point
°C
Rel
Hum
%
Delta-T

°C
Wind Press
QNH
hPa
Press
MSL
hPa
Rain
since
9 am
mm
Dir
 
Spd
km/h
Gust
km/h
Spd
kts
Gust
kts
29/11:30pm 17.3 18.2 16.0 92 0.8 E 6 7 3 4 1018.6 1018.6 0.0
29/11:00pm 17.9 19.6 16.2 90 1.0 E 2 9 1 5 1018.5 1018.5 0.0
29/10:30pm 17.8 19.6 15.6 87 1.3 CALM 0 0 0 0 1018.9 1018.9 0.0
29/10:00pm 18.2 20.3 16.2 88 1.2 CALM 0 0 0 0 1019.1 1019.1 0.0
29/09:30pm 18.3 20.3 15.9 86 1.4 CALM 0 0 0 0 1019.2 1019.2 0.0
29/09:00pm 19.1 21.3 16.5 85 1.6 CALM 0 0 0 0 1019.2 1019.2 0.0
29/08:30pm 18.9 19.3 15.4 80 2.1 E 7 9 4 5 1018.9 1018.9 0.0
29/08:00pm 20.4 22.8 17.0 81 2.1 CALM 0 0 0 0 1018.8 1018.8 0.0
29/07:30pm 19.6 20.6 16.3 81 2.0 NNE 6 9 3 5 1018.9 1018.9 0.0
29/07:00pm 21.6 23.2 16.8 74 2.9 NE 4 7 2 4 1018.7 1018.7 0.0
29/06:30pm 22.2 22.6 17.3 74 3.0 NE 11 17 6 9 1018.4 1018.4 0.0
29/06:00pm 22.3 23.6 17.0 72 3.2 NNE 6 9 3 5 1018.3 1018.3 0.0
29/05:30pm 22.9 23.8 16.7 68 3.8 NE 7 11 4 6 1018.3 1018.3 0.0
29/05:00pm 23.6 23.4 15.6 61 4.8 NE 11 15 6 8 1017.9 1017.9 0.0
29/04:30pm 24.3 23.9 15.2 57 5.5 NE 11 17 6 9 1017.9 1017.9 0.0
29/04:00pm 24.7 24.8 15.6 57 5.5 NE 9 11 5 6 1017.9 1017.9 0.0
29/03:30pm 24.8 24.0 15.1 54 5.8 NE 13 17 7 9 1017.8 1017.8 0.0
29/03:00pm 25.3 24.5 14.1 50 6.6 ENE 11 17 6 9 1017.9 1017.9 0.0
29/02:30pm 25.8 24.8 13.3 46 7.3 N 11 17 6 9 1018.3 1018.3 0.0
29/02:00pm 25.1 24.8 13.3 48 6.9 N 7 9 4 5 1018.4 1018.4 0.0
29/01:30pm 24.7 24.2 12.6 47 7.0 NNW 7 11 4 6 1018.5 1018.5 0.0
29/01:00pm 24.4 24.0 13.0 49 6.6 NNW 7 13 4 7 1019.0 1019.0 0.0
29/12:30pm 23.5 22.8 13.1 52 6.0 WNW 9 13 5 7 1019.9 1019.9 0.0
29/12:00pm 23.2 22.8 14.2 57 5.3 WNW 9 13 5 7 1020.5 1020.5 0.0
29/11:30am 22.4 22.1 14.5 61 4.6 WNW 9 11 5 6 1021.0 1021.0 0.0
29/11:00am 21.7 22.0 15.1 66 3.9 W 7 11 4 6 1021.2 1021.2 0.0
29/10:30am 21.3 21.7 15.2 68 3.6 WNW 7 11 4 6 1021.9 1021.9 0.0
29/10:00am 20.6 21.0 15.2 71 3.2 NW 7 9 4 5 1022.2 1022.2 0.0
29/09:30am 19.2 19.7 15.1 77 2.4 NW 6 9 3 5 1022.7 1022.7 0.0
29/09:00am 17.1 18.6 14.6 85 1.4 CALM 0 4 0 2 1023.1 1023.1 0.0
29/08:30am 15.9 17.4 14.6 92 0.7 CALM 0 0 0 0 1023.0 1023.0 0.0
29/08:00am 15.3 15.5 14.3 94 0.6 WNW 6 7 3 4 1023.2 1023.2 0.0
29/07:30am 14.5 15.8 14.0 97 0.3 CALM 0 0 0 0 1022.9 1022.9 0.0
29/07:00am 12.2 12.7 11.6 96 0.3 CALM 0 0 0 0 1022.5 1022.5 0.0
29/06:30am 12.7 13.4 12.2 97 0.3 CALM 0 2 0 1 1022.3 1022.3 0.0
29/06:14am 12.6 13.3 12.1 97 0.3 CALM 0 6 0 3 1022.4 1022.4 0.0
29/06:00am 12.3 12.8 11.7 96 0.3 CALM 0 0 0 0 1022.4 1022.4 0.0
29/05:30am 12.2 12.7 11.6 96 0.3 CALM 0 0 0 0 1022.2 1022.2 0.0
29/05:00am 12.8 13.5 12.2 96 0.3 CALM 0 0 0 0 1022.0 1022.0 0.0
29/04:30am 12.7 13.4 12.1 96 0.3 CALM 0 0 0 0 1022.0 1022.0 0.0
29/04:00am 13.3 14.1 12.7 96 0.3 CALM 0 0 0 0 1021.9 1021.9 0.0
29/03:41am 13.4 14.3 12.8 96 0.3 CALM 0 0 0 0 1021.8 1021.8 0.0
29/03:40am 13.5 14.4 12.9 96 0.3 CALM 0 0 0 0 1021.8 1021.8 0.0
29/03:30am 13.8 14.8 13.2 96 0.3 CALM 0 0 0 0 1021.9 1021.9 0.0
29/03:00am 13.8 14.7 13.0 95 0.4 CALM 0 0 0 0 1022.0 1022.0 0.0
29/02:53am 13.5 14.3 12.6 94 0.5 CALM 0 0 0 0 1022.1 1022.1 0.0
29/02:33am 13.7 14.6 12.8 94 0.5 CALM 0 0 0 0 1022.1 1022.1 0.0
29/02:30am 13.7 14.6 12.8 94 0.5 CALM 0 0 0 0 1022.1 1022.1 0.0
29/02:12am 14.4 15.5 13.6 95 0.4 CALM 0 0 0 0 1022.3 1022.3 0.0
29/02:00am 15.1 16.5 14.5 96 0.3 CALM 0 0 0 0 1022.1 1022.1 0.0
29/01:58am 15.3 16.8 14.7 96 0.3 CALM 0 0 0 0 1022.1 1022.1 0.0
29/01:40am 14.5 15.7 13.7 95 0.4 CALM 0 0 0 0 1022.3 1022.3 0.0
29/01:30am 14.4 15.4 13.3 93 0.6 CALM 0 0 0 0 1022.3 1022.3 0.0
29/01:00am 15.4 16.8 14.4 94 0.6 CALM 0 0 0 0 1022.6 1022.6 0.0
29/12:30am 15.4 16.4 14.4 94 0.6 ENE 2 6 1 3 1022.9 1022.9 0.0
29/12:02am 15.6 16.0 14.8 95 0.5 ENE 6 7 3 4 1022.7 1022.7 0.0
29/12:00am 15.5 16.2 14.5 94 0.6 ENE 4 7 2 4 1022.7 1022.7 0.0
 
Date/Time
EST
Tmp

°C
App
Tmp
°C
Dew
Point
°C
Rel
Hum
%
Delta-T

°C
Wind Press
QNH
hPa
Press
MSL
hPa
Rain
since
9 am
mm
Dir
 
Spd
km/h
Gust
km/h
Spd
kts
Gust
kts
28/11:44pm 15.6 17.0 14.5 93 0.6 CALM 0 0 0 0 1022.8 1022.8 0.0
28/11:30pm 15.7 16.9 13.9 89 1.0 CALM 0 0 0 0 1022.7 1022.7 0.0
28/11:00pm 17.1 18.5 15.4 90 1.0 ENE 2 7 1 4 1022.8 1022.8 0.0
28/10:30pm 17.0 18.4 15.5 91 0.9 ENE 2 7 1 4 1023.2 1023.2 0.0
28/10:00pm 16.2 17.7 14.6 90 0.9 CALM 0 0 0 0 1023.1 1023.1 0.0
28/09:30pm 17.1 18.8 15.3 89 1.0 CALM 0 0 0 0 1022.9 1022.9 0.0
28/09:00pm 17.9 19.7 15.5 86 1.4 CALM 0 0 0 0 1022.6 1022.6 0.0
28/08:30pm 17.9 18.6 14.4 80 2.0 NNE 4 6 2 3 1022.4 1022.4 0.0
28/08:00pm 20.4 21.1 16.2 77 2.5 NE 7 9 4 5 1022.2 1022.2 0.0
28/07:30pm 20.8 21.6 16.4 76 2.7 NE 7 11 4 6 1022.2 1022.2 0.0
28/07:00pm 21.3 22.2 16.7 75 2.8 NE 7 13 4 7 1022.1 1022.1 0.0
28/06:30pm 21.7 22.3 16.9 74 2.9 ENE 9 13 5 7 1022.1 1022.1 0.0
28/06:00pm 22.3 22.4 16.6 70 3.5 ENE 11 17 6 9 1021.8 1021.8 0.0
28/05:30pm 23.1 22.6 16.9 68 3.8 ENE 15 19 8 10 1021.4 1021.4 0.0
28/05:00pm 24.3 24.1 16.6 62 4.7 ENE 13 17 7 9 1021.0 1021.0 0.0
28/04:30pm 25.2 24.4 16.1 57 5.6 ENE 15 19 8 10 1021.0 1021.0 0.0
28/04:00pm 25.9 25.1 15.0 51 6.5 ENE 13 20 7 11 1020.9 1020.9 0.0
28/03:30pm 27.1 26.3 11.6 38 8.9 NNE 7 11 4 6 1020.9 1020.9 0.0
28/03:00pm 27.2 26.5 13.2 42 8.2 N 9 17 5 9 1021.0 1021.0 0.0
28/02:30pm 26.5 26.1 12.9 43 7.9 N 7 13 4 7 1021.1 1021.1 0.0
28/02:00pm 26.2 26.2 13.7 46 7.4 NNW 6 13 3 7 1021.3 1021.3 0.0
28/01:30pm 25.1 25.6 13.9 49 6.6 N 4 11 2 6 1021.6 1021.6 0.0
28/01:00pm 24.8 25.1 14.9 54 5.9 NW 7 11 4 6 1022.0 1022.0 0.0
28/12:30pm 23.9 24.2 14.6 56 5.5 N 6 15 3 8 1022.5 1022.5 0.0
28/12:00pm 22.4 22.9 15.0 63 4.4 W 6 13 3 7 1022.9 1022.9 0.0
28/11:30am 21.5 21.7 14.6 65 4.0 WNW 7 13 4 7 1023.7 1023.7 0.0
28/11:00am 19.8 19.4 14.0 69 3.3 NNW 9 13 5 7 1024.2 1024.2 0.0
28/10:30am 18.9 18.8 14.0 73 2.8 WNW 7 11 4 6 1024.5 1024.5 0.0
28/10:00am 18.0 17.5 13.7 76 2.4 WNW 9 13 5 7 1024.8 1024.8 0.0
28/09:30am 17.2 17.3 14.5 84 1.6 NW 7 9 4 5 1025.1 1025.1 0.0
28/09:00am 16.8 16.9 14.4 86 1.4 WSW 7 9 4 5 1025.2 1025.2 0.0
28/08:30am 16.4 16.4 14.2 87 1.3 W 7 9 4 5 1025.1 1025.1 0.0
28/08:00am 15.5 15.6 14.4 93 0.6 NW 7 13 4 7 1024.9 1024.9 0.0
28/07:30am 14.2 14.2 13.6 96 0.3 NW 6 7 3 4 1024.6 1024.6 0.0
28/07:00am 13.5 13.1 13.0 97 0.3 NW 7 7 4 4 1024.3 1024.3 0.0
28/06:30am 13.4 13.1 12.8 96 0.3 NW 6 6 3 3 1023.9 1023.9 0.0
28/06:00am 12.7 12.2 12.1 96 0.3 NW 6 7 3 4 1023.8 1023.8 0.0
28/05:56am 12.8 13.1 12.2 96 0.3 NW 2 7 1 4 1023.8 1023.8 0.0
28/05:37am 12.5 13.0 11.7 95 0.4 CALM 0 0 0 0 1023.7 1023.7 0.0
28/05:30am 13.1 13.9 12.5 96 0.3 CALM 0 0 0 0 1023.8 1023.8 0.0
28/05:00am 12.7 13.4 12.1 96 0.3 CALM 0 0 0 0 1023.7 1023.7 0.0
28/04:30am 13.3 14.1 12.7 96 0.3 CALM 0 0 0 0 1023.5 1023.5 0.0
28/04:00am 13.0 13.8 12.4 96 0.3 CALM 0 0 0 0 1023.4 1023.4 0.0
28/03:40am 13.4 14.3 12.9 97 0.3 CALM 0 0 0 0 1023.1 1023.1 0.0
28/03:30am 13.5 14.4 13.0 97 0.3 CALM 0 0 0 0 1023.1 1023.1 0.0
28/03:12am 13.1 13.8 12.3 95 0.4 CALM 0 0 0 0 1022.9 1022.9 0.0
28/03:00am 13.2 14.0 12.6 96 0.3 CALM 0 0 0 0 1022.8 1022.8 0.0
28/02:42am 13.9 14.9 13.3 96 0.3 CALM 0 0 0 0 1023.0 1023.0 0.0
28/02:30am 13.5 14.4 12.9 96 0.3 CALM 0 0 0 0 1023.3 1023.3 0.0
28/02:00am 13.6 14.5 12.8 95 0.4 CALM 0 0 0 0 1023.5 1023.5 0.0
28/01:57am 13.5 14.3 12.7 95 0.4 CALM 0 0 0 0 1023.5 1023.5 0.0
28/01:38am 14.4 15.5 13.6 95 0.4 CALM 0 0 0 0 1023.5 1023.5 0.0
28/01:30am 14.5 15.7 13.9 96 0.3 CALM 0 0 0 0 1023.6 1023.6 0.0
28/01:00am 14.3 15.4 13.5 95 0.4 CALM 0 0 0 0 1023.8 1023.8 0.0
28/12:40am 14.7 15.9 13.9 95 0.4 CALM 0 0 0 0 1024.0 1024.0 0.0
28/12:30am 14.9 16.2 14.1 95 0.5 CALM 0 0 0 0 1024.0 1024.0 0.0
28/12:29am 15.0 16.3 14.2 95 0.5 CALM 0 0 0 0 1024.1 1024.1 0.0
28/12:04am 14.9 16.1 13.9 94 0.6 CALM 0 0 0 0 1024.2 1024.2 0.0
28/12:00am 14.9 16.1 13.9 94 0.6 CALM 0 0 0 0 1024.2 1024.2 0.0
 
Date/Time
EST
Tmp

°C
App
Tmp
°C
Dew
Point
°C
Rel
Hum
%
Delta-T

°C
Wind Press
QNH
hPa
Press
MSL
hPa
Rain
since
9 am
mm
Dir
 
Spd
km/h
Gust
km/h
Spd
kts
Gust
kts
27/11:30pm 15.1 16.3 13.8 92 0.7 CALM 0 0 0 0 1024.4 1024.4 0.0
27/11:00pm 15.3 16.6 14.0 92 0.7 CALM 0 0 0 0 1024.6 1024.6 0.0
27/10:30pm 16.0 17.4 14.5 91 0.9 CALM 0 0 0 0 1024.9 1024.9 0.0
27/10:00pm 16.9 18.6 15.2 90 1.0 CALM 0 0 0 0 1025.1 1025.1 0.0
27/09:30pm 17.4 19.1 15.2 87 1.3 CALM 0 0 0 0 1024.9 1024.9 0.0
27/09:00pm 18.1 19.5 15.5 85 1.5 NW 2 6 1 3 1024.8 1024.8 0.0
27/08:30pm 18.7 18.9 15.8 83 1.7 NNW 9 13 5 7 1024.9 1024.9 0.0
27/08:00pm 19.5 19.4 16.0 80 2.1 NNE 11 17 6 9 1024.6 1024.6 0.0
27/07:30pm 20.0 19.2 16.0 78 2.4 NE 15 24 8 13 1024.3 1024.3 0.0
27/07:00pm 20.1 19.1 15.7 76 2.6 NE 15 24 8 13 1024.1 1024.1 0.0
27/06:30pm 20.4 19.3 15.4 73 3.0 NE 15 22 8 12 1023.7 1023.7 0.0
27/06:00pm 20.7 19.1 15.0 70 3.3 NE 17 24 9 13 1023.5 1023.5 0.0
27/05:30pm 21.3 19.1 14.9 67 3.8 NE 20 26 11 14 1023.3 1023.3 0.0
27/05:00pm 22.0 19.7 14.1 61 4.6 NNE 19 28 10 15 1023.3 1023.3 0.0
27/04:30pm 22.9 20.6 14.2 58 5.1 NE 19 30 10 16 1023.2 1023.2 0.0
27/04:00pm 23.5 21.1 13.9 55 5.6 NE 19 30 10 16 1023.1 1023.1 0.0
27/03:30pm 24.3 22.2 13.5 51 6.3 NNE 17 26 9 14 1023.2 1023.2 0.0
27/03:00pm 24.4 22.2 13.3 50 6.4 NNE 17 24 9 13 1023.1 1023.1 0.0
27/02:30pm 25.3 23.2 13.5 48 6.9 NNE 17 26 9 14 1023.1 1023.1 0.0
27/02:00pm 25.1 23.2 13.0 47 7.0 NNE 15 22 8 12 1023.2 1023.2 0.0
27/01:30pm 25.7 23.9 13.2 46 7.3 NNE 15 26 8 14 1023.4 1023.4 0.0

Latest Capital City Observations: Canberra | Sydney | Melbourne | Brisbane | Adelaide | Perth | Hobart | Darwin

Other Formats:

Comma delimited format used in spreadsheet applications
http://www.bom.gov.au/fwo/IDN60901/IDN60901.94765.axf

JavaScript Object Notation format (JSON) in row-major order
http://www.bom.gov.au/fwo/IDN60901/IDN60901.94765.json